Nordic Philip — 5BZH2 — position and weather

sailwx.info

Track history (hours):
 
Tides and Currents Weather Stations Pressure Air Temp Water Temp Dewpoint Dewpoint Depression Visibility Wind Speed Wind Dir Waves Ship Positions

Nordic Philip

Last reported at 2016-Feb-12 18:15 UTC. Time now 2016-Feb-12 20:31 UTC.
Position N 54°28' E 018°50'.

Length 152 m; draft 6.2 m.

Type: Cargo ship. MMSI: 212018000.

Date/timePositionNaut miles runAvg speedWind from/ knotsBaromVisibWave heightAir tempDewpointWater temp
2016-Feb-12 18:15N 54°28' E 018°50'0 0.0
2016-Feb-12 00:06N 54°28' E 018°50'0 0.0
2016-Feb-11 23:24N 54°28' E 018°50'0 0.0
2016-Feb-11 22:30N 54°28' E 018°50'0 0.0
2016-Feb-11 21:30N 54°28' E 018°50'0 0.0
2016-Feb-11 20:30N 54°28' E 018°50'0 0.0
2016-Feb-11 19:30N 54°28' E 018°50'0 0.0
2016-Feb-11 18:30N 54°28' E 018°50'0 0.0
2016-Feb-11 17:33N 54°28' E 018°50'0 0.0
2016-Feb-11 16:33N 54°28' E 018°50'0 0.0
2016-Feb-11 15:33N 54°28' E 018°50'0 0.0
2016-Feb-11 14:33N 54°28' E 018°50'10 9.5
2016-Feb-11 13:34N 54°32' E 018°36'3 0.2
2016-Feb-10 22:30N 54°33' E 018°30'0 0.0
2016-Feb-10 21:33N 54°33' E 018°30'0 0.0
2016-Feb-10 20:33N 54°33' E 018°30'1 0.6
2016-Feb-10 19:33N 54°32' E 018°31'4 2.0
2016-Feb-10 17:29N 54°31' E 018°38'0 0.0
2016-Feb-10 16:29N 54°31' E 018°38'0 0.0
2016-Feb-10 15:29N 54°31' E 018°38'0 0.0
2016-Feb-10 14:32N 54°31' E 018°38'3 3.2
2016-Feb-10 13:33N 54°32' E 018°43'1010.4
2016-Feb-10 12:33N 54°40' E 018°56'1111.1
2016-Feb-10 11:33N 54°50' E 018°60'1212.2
2016-Feb-10 10:33N 55°02' E 019°04'1211.8
2016-Feb-10 09:31N 55°14' E 019°08'  
2016-Feb-07 03:29N 57°36' E 017°58'2912.5
2016-Feb-07 01:11N 57°10' E 017°35'812.6
2016-Feb-07 00:32N 57°02' E 017°30'9711.8
2016-Feb-06 16:19N 55°45' E 015°45'1012.5
2016-Feb-06 15:32N 55°40' E 015°30'1212.4
2016-Feb-06 14:33N 55°34' E 015°11'1312.7
2016-Feb-06 13:33N 55°28' E 014°51'1312.6
2016-Feb-06 12:33N 55°20' E 014°34'1312.8
2016-Feb-06 11:33N 55°10' E 014°19'1413.8
2016-Feb-06 10:33N 55°01' E 014°02'1716.7
2016-Feb-06 09:33N 54°55' E 013°35'2613.0
2016-Feb-06 07:32N 54°46' E 012°52'1212.4
2016-Feb-06 06:33N 54°40' E 012°34'1712.2
2016-Feb-06 05:09N 54°27' E 012°14'711.2
2016-Feb-06 04:33N 54°24' E 012°04'1212.1
2016-Feb-06 03:33N 54°25' E 011°43'1312.6
2016-Feb-06 02:33N 54°31' E 011°24'1212.1
2016-Feb-06 01:33N 54°35' E 011°04'1312.7
2016-Feb-06 00:33N 54°34' E 010°42'1312.6
2016-Feb-05 23:33N 54°30' E 010°21'1110.9
2016-Feb-05 22:33N 54°22' E 010°09'2 2.3
2016-Feb-05 21:33N 54°22' E 010°05'7 7.1
2016-Feb-05 20:33N 54°21' E 009°53'4 4.4
2016-Feb-05 19:33N 54°21' E 009°46'8 7.4
2016-Feb-05 18:27N 54°15' E 009°37'15 7.8
2016-Feb-05 16:33N 54°04' E 009°19'8 8.4
2016-Feb-05 15:33N 53°56' E 009°13'4 4.4
2016-Feb-05 14:33N 53°53' E 009°08'2 2.1
2016-Feb-05 13:33N 53°53' E 009°05'1110.9
2016-Feb-05 12:33N 53°51' E 008°46'1111.5
2016-Feb-05 11:33N 53°58' E 008°32'1312.7
2016-Feb-05 10:34N 53°59' E 008°10'6 5.8
2016-Feb-05 09:33N 53°58' E 008°01'8 8.1
2016-Feb-05 08:33N 53°51' E 007°53'1313.4
2016-Feb-05 07:33N 53°40' E 008°06'5 5.1
2016-Feb-05 06:32N 53°36' E 008°09'0 0.0
2016-Feb-05 05:32N 53°36' E 008°09'0 0.0
2016-Feb-05 04:32N 53°36' E 008°09'0 0.0
2016-Feb-05 03:32N 53°36' E 008°09'0 0.0
2016-Feb-05 02:32N 53°36' E 008°09'0 0.0
2016-Feb-05 01:32N 53°36' E 008°09'0 0.0
2016-Feb-05 00:32N 53°36' E 008°09'0 0.0
2016-Feb-04 23:32N 53°36' E 008°09'0 0.0
2016-Feb-04 22:32N 53°36' E 008°09'0 0.0
2016-Feb-04 21:32N 53°36' E 008°09'0 0.0
2016-Feb-04 20:32N 53°36' E 008°09'0 0.0
2016-Feb-04 19:32N 53°36' E 008°09'0 0.0
2016-Feb-04 18:32N 53°36' E 008°09'0 0.0
2016-Feb-04 17:32N 53°36' E 008°09'0 0.0
2016-Feb-04 16:32N 53°36' E 008°09'0 0.0
2016-Feb-04 15:29N 53°36' E 008°09'0 0.1
2016-Feb-04 14:33N 53°35' E 008°09'1111.3
2016-Feb-04 13:33N 53°46' E 008°03'1211.9
2016-Feb-04 12:33N 53°55' E 007°49'0 0.1
2016-Feb-04 11:32N 53°55' E 007°50'0 0.0
2016-Feb-04 10:33N 53°55' E 007°50'0 0.1
2016-Feb-04 09:31N 53°55' E 007°49'0 0.0
2016-Feb-04 08:33N 53°55' E 007°50'0 0.0
2016-Feb-04 07:31N 53°55' E 007°50'0 0.0
2016-Feb-04 06:25N 53°55' E 007°50'0 0.0
2016-Feb-04 05:31N 53°55' E 007°50'0 0.0
2016-Feb-04 04:33N 53°55' E 007°50'0 0.0
2016-Feb-04 03:33N 53°55' E 007°50'0 0.0
2016-Feb-04 02:33N 53°55' E 007°50'0 0.0
2016-Feb-04 01:25N 53°55' E 007°50'0 0.0
2016-Feb-04 00:31N 53°55' E 007°50'0 0.0
2016-Feb-03 23:28N 53°55' E 007°49'0 0.0
2016-Feb-03 22:33N 53°55' E 007°50'0 0.0
2016-Feb-03 21:33N 53°55' E 007°50'0 0.0
2016-Feb-03 20:33N 53°55' E 007°49'0 0.0
2016-Feb-03 19:33N 53°55' E 007°49'0 0.0
2016-Feb-03 18:33N 53°55' E 007°50'0 0.0
2016-Feb-03 17:33N 53°55' E 007°50'0 0.0
2016-Feb-03 16:33N 53°55' E 007°49'0 0.0
2016-Feb-03 15:30N 53°55' E 007°50'0 0.0
2016-Feb-03 14:31N 53°55' E 007°49'0 0.1
2016-Feb-03 13:31N 53°55' E 007°50'0 0.0
2016-Feb-03 12:31N 53°55' E 007°49'0 0.0
2016-Feb-03 11:32N 53°55' E 007°49'0 0.0
2016-Feb-03 10:33N 53°55' E 007°49'0 0.0
2016-Feb-03 09:33N 53°55' E 007°49'4 3.8
2016-Feb-03 08:33N 53°57' E 007°55'8 7.6
2016-Feb-03 07:34N 54°01' E 008°06'9 8.9
2016-Feb-03 06:33N 53°60' E 008°21'1212.0
2016-Feb-03 05:33N 53°55' E 008°40'1110.7
2016-Feb-03 04:33N 53°51' E 008°57'8 7.5
2016-Feb-03 03:32N 53°54' E 009°09'5 4.9
2016-Feb-03 02:33N 53°57' E 009°14'20 6.6
2016-Feb-02 23:29N 54°13' E 009°36'8 7.9
2016-Feb-02 22:32N 54°19' E 009°43'7 7.5
2016-Feb-02 21:34N 54°21' E 009°55'5 5.3
2016-Feb-02 20:33N 54°22' E 010°04'3 2.6
2016-Feb-02 19:33N 54°22' E 010°09'1 1.3
2016-Feb-02 18:33N 54°22' E 010°11'  
Track history (hours):
 
Tides and Currents Weather Stations Pressure Air Temp Water Temp Dewpoint Dewpoint Depression Visibility Wind Speed Wind Dir Waves Ship Positions

Nordic Philip

Last reported at 2016-Feb-12 18:15 UTC. Time now 2016-Feb-12 20:31 UTC.
Position N 54°28' E 018°50'.

Length 152 m; draft 6.2 m.

Type: Cargo ship. MMSI: 212018000.

Date/timePositionNaut miles runAvg speedWind from/ knotsBaromVisibWave heightAir tempDewpointWater temp
2016-Feb-12 18:15N 54°28' E 018°50'0 0.0
2016-Feb-12 00:06N 54°28' E 018°50'0 0.0
2016-Feb-11 23:24N 54°28' E 018°50'0 0.0
2016-Feb-11 22:30N 54°28' E 018°50'0 0.0
2016-Feb-11 21:30N 54°28' E 018°50'0 0.0
2016-Feb-11 20:30N 54°28' E 018°50'0 0.0
2016-Feb-11 19:30N 54°28' E 018°50'0 0.0
2016-Feb-11 18:30N 54°28' E 018°50'0 0.0
2016-Feb-11 17:33N 54°28' E 018°50'0 0.0
2016-Feb-11 16:33N 54°28' E 018°50'0 0.0
2016-Feb-11 15:33N 54°28' E 018°50'0 0.0
2016-Feb-11 14:33N 54°28' E 018°50'10 9.5
2016-Feb-11 13:34N 54°32' E 018°36'3 0.2
2016-Feb-10 22:30N 54°33' E 018°30'0 0.0
2016-Feb-10 21:33N 54°33' E 018°30'0 0.0
2016-Feb-10 20:33N 54°33' E 018°30'1 0.6
2016-Feb-10 19:33N 54°32' E 018°31'4 2.0
2016-Feb-10 17:29N 54°31' E 018°38'0 0.0
2016-Feb-10 16:29N 54°31' E 018°38'0 0.0
2016-Feb-10 15:29N 54°31' E 018°38'0 0.0
2016-Feb-10 14:32N 54°31' E 018°38'3 3.2
2016-Feb-10 13:33N 54°32' E 018°43'1010.4
2016-Feb-10 12:33N 54°40' E 018°56'1111.1
2016-Feb-10 11:33N 54°50' E 018°60'1212.2
2016-Feb-10 10:33N 55°02' E 019°04'1211.8
2016-Feb-10 09:31N 55°14' E 019°08'  
2016-Feb-07 03:29N 57°36' E 017°58'2912.5
2016-Feb-07 01:11N 57°10' E 017°35'812.6
2016-Feb-07 00:32N 57°02' E 017°30'9711.8
2016-Feb-06 16:19N 55°45' E 015°45'1012.5
2016-Feb-06 15:32N 55°40' E 015°30'1212.4
2016-Feb-06 14:33N 55°34' E 015°11'1312.7
2016-Feb-06 13:33N 55°28' E 014°51'1312.6
2016-Feb-06 12:33N 55°20' E 014°34'1312.8
2016-Feb-06 11:33N 55°10' E 014°19'1413.8
2016-Feb-06 10:33N 55°01' E 014°02'1716.7
2016-Feb-06 09:33N 54°55' E 013°35'2613.0
2016-Feb-06 07:32N 54°46' E 012°52'1212.4
2016-Feb-06 06:33N 54°40' E 012°34'1712.2
2016-Feb-06 05:09N 54°27' E 012°14'711.2
2016-Feb-06 04:33N 54°24' E 012°04'1212.1
2016-Feb-06 03:33N 54°25' E 011°43'1312.6
2016-Feb-06 02:33N 54°31' E 011°24'1212.1
2016-Feb-06 01:33N 54°35' E 011°04'1312.7
2016-Feb-06 00:33N 54°34' E 010°42'1312.6
2016-Feb-05 23:33N 54°30' E 010°21'1110.9
2016-Feb-05 22:33N 54°22' E 010°09'2 2.3
2016-Feb-05 21:33N 54°22' E 010°05'7 7.1
2016-Feb-05 20:33N 54°21' E 009°53'4 4.4
2016-Feb-05 19:33N 54°21' E 009°46'8 7.4
2016-Feb-05 18:27N 54°15' E 009°37'15 7.8
2016-Feb-05 16:33N 54°04' E 009°19'8 8.4
2016-Feb-05 15:33N 53°56' E 009°13'4 4.4
2016-Feb-05 14:33N 53°53' E 009°08'2 2.1
2016-Feb-05 13:33N 53°53' E 009°05'1110.9
2016-Feb-05 12:33N 53°51' E 008°46'1111.5
2016-Feb-05 11:33N 53°58' E 008°32'1312.7
2016-Feb-05 10:34N 53°59' E 008°10'6 5.8
2016-Feb-05 09:33N 53°58' E 008°01'8 8.1
2016-Feb-05 08:33N 53°51' E 007°53'1313.4
2016-Feb-05 07:33N 53°40' E 008°06'5 5.1
2016-Feb-05 06:32N 53°36' E 008°09'0 0.0
2016-Feb-05 05:32N 53°36' E 008°09'0 0.0
2016-Feb-05 04:32N 53°36' E 008°09'0 0.0
2016-Feb-05 03:32N 53°36' E 008°09'0 0.0
2016-Feb-05 02:32N 53°36' E 008°09'0 0.0
2016-Feb-05 01:32N 53°36' E 008°09'0 0.0
2016-Feb-05 00:32N 53°36' E 008°09'0 0.0
2016-Feb-04 23:32N 53°36' E 008°09'0 0.0
2016-Feb-04 22:32N 53°36' E 008°09'0 0.0
2016-Feb-04 21:32N 53°36' E 008°09'0 0.0
2016-Feb-04 20:32N 53°36' E 008°09'0 0.0
2016-Feb-04 19:32N 53°36' E 008°09'0 0.0
2016-Feb-04 18:32N 53°36' E 008°09'0 0.0
2016-Feb-04 17:32N 53°36' E 008°09'0 0.0
2016-Feb-04 16:32N 53°36' E 008°09'0 0.0
2016-Feb-04 15:29N 53°36' E 008°09'0 0.1
2016-Feb-04 14:33N 53°35' E 008°09'1111.3
2016-Feb-04 13:33N 53°46' E 008°03'1211.9
2016-Feb-04 12:33N 53°55' E 007°49'0 0.1
2016-Feb-04 11:32N 53°55' E 007°50'0 0.0
2016-Feb-04 10:33N 53°55' E 007°50'0 0.1
2016-Feb-04 09:31N 53°55' E 007°49'0 0.0
2016-Feb-04 08:33N 53°55' E 007°50'0 0.0
2016-Feb-04 07:31N 53°55' E 007°50'0 0.0
2016-Feb-04 06:25N 53°55' E 007°50'0 0.0
2016-Feb-04 05:31N 53°55' E 007°50'0 0.0
2016-Feb-04 04:33N 53°55' E 007°50'0 0.0
2016-Feb-04 03:33N 53°55' E 007°50'0 0.0
2016-Feb-04 02:33N 53°55' E 007°50'0 0.0
2016-Feb-04 01:25N 53°55' E 007°50'0 0.0
2016-Feb-04 00:31N 53°55' E 007°50'0 0.0
2016-Feb-03 23:28N 53°55' E 007°49'0 0.0
2016-Feb-03 22:33N 53°55' E 007°50'0 0.0
2016-Feb-03 21:33N 53°55' E 007°50'0 0.0
2016-Feb-03 20:33N 53°55' E 007°49'0 0.0
2016-Feb-03 19:33N 53°55' E 007°49'0 0.0
2016-Feb-03 18:33N 53°55' E 007°50'0 0.0
2016-Feb-03 17:33N 53°55' E 007°50'0 0.0
2016-Feb-03 16:33N 53°55' E 007°49'0 0.0
2016-Feb-03 15:30N 53°55' E 007°50'0 0.0
2016-Feb-03 14:31N 53°55' E 007°49'0 0.1
2016-Feb-03 13:31N 53°55' E 007°50'0 0.0
2016-Feb-03 12:31N 53°55' E 007°49'0 0.0
2016-Feb-03 11:32N 53°55' E 007°49'0 0.0
2016-Feb-03 10:33N 53°55' E 007°49'0 0.0
2016-Feb-03 09:33N 53°55' E 007°49'4 3.8
2016-Feb-03 08:33N 53°57' E 007°55'8 7.6
2016-Feb-03 07:34N 54°01' E 008°06'9 8.9
2016-Feb-03 06:33N 53°60' E 008°21'1212.0
2016-Feb-03 05:33N 53°55' E 008°40'1110.7
2016-Feb-03 04:33N 53°51' E 008°57'8 7.5
2016-Feb-03 03:32N 53°54' E 009°09'5 4.9
2016-Feb-03 02:33N 53°57' E 009°14'20 6.6
2016-Feb-02 23:29N 54°13' E 009°36'8 7.9
2016-Feb-02 22:32N 54°19' E 009°43'7 7.5
2016-Feb-02 21:34N 54°21' E 009°55'5 5.3
2016-Feb-02 20:33N 54°22' E 010°04'3 2.6
2016-Feb-02 19:33N 54°22' E 010°09'1 1.3
2016-Feb-02 18:33N 54°22' E 010°11'  

Dump ship's entire track history